sensor_id;sensor_type;location;lat;lon;timestamp;P1;durP1;ratioP1;P2;durP2;ratioP2
60225;SDS011;46090;48.436;11.410;2023-07-31T00:01:15;2.22;;;0.75;;
60225;SDS011;46090;48.436;11.410;2023-07-31T00:03:42;4.60;;;0.80;;
60225;SDS011;46090;48.436;11.410;2023-07-31T00:06:09;1.67;;;0.60;;
60225;SDS011;46090;48.436;11.410;2023-07-31T00:08:36;4.18;;;0.88;;
60225;SDS011;46090;48.436;11.410;2023-07-31T00:11:03;4.47;;;1.02;;
60225;SDS011;46090;48.436;11.410;2023-07-31T00:13:29;4.43;;;1.13;;
60225;SDS011;46090;48.436;11.410;2023-07-31T00:15:56;5.13;;;0.82;;
60225;SDS011;46090;48.436;11.410;2023-07-31T00:18:23;2.63;;;0.88;;
60225;SDS011;46090;48.436;11.410;2023-07-31T00:20:49;4.93;;;1.05;;
60225;SDS011;46090;48.436;11.410;2023-07-31T00:23:16;3.78;;;0.70;;
60225;SDS011;46090;48.436;11.410;2023-07-31T00:25:42;4.30;;;1.05;;
60225;SDS011;46090;48.436;11.410;2023-07-31T00:28:09;6.15;;;1.30;;
60225;SDS011;46090;48.436;11.410;2023-07-31T00:30:37;3.47;;;0.88;;
60225;SDS011;46090;48.436;11.410;2023-07-31T00:33:04;3.53;;;1.08;;
60225;SDS011;46090;48.436;11.410;2023-07-31T00:35:31;3.08;;;0.90;;
60225;SDS011;46090;48.436;11.410;2023-07-31T00:37:58;5.55;;;1.05;;
60225;SDS011;46090;48.436;11.410;2023-07-31T00:40:24;3.47;;;0.80;;
60225;SDS011;46090;48.436;11.410;2023-07-31T00:42:51;3.88;;;1.40;;
60225;SDS011;46090;48.436;11.410;2023-07-31T00:45:18;3.88;;;1.00;;
60225;SDS011;46090;48.436;11.410;2023-07-31T00:47:45;2.80;;;0.82;;
60225;SDS011;46090;48.436;11.410;2023-07-31T00:50:12;1.90;;;0.63;;
60225;SDS011;46090;48.436;11.410;2023-07-31T00:52:40;2.60;;;0.90;;
60225;SDS011;46090;48.436;11.410;2023-07-31T00:55:07;7.85;;;1.23;;
60225;SDS011;46090;48.436;11.410;2023-07-31T00:57:34;2.42;;;0.80;;
60225;SDS011;46090;48.436;11.410;2023-07-31T01:00:01;3.67;;;1.05;;
60225;SDS011;46090;48.436;11.410;2023-07-31T01:02:30;2.95;;;1.00;;
60225;SDS011;46090;48.436;11.410;2023-07-31T01:04:57;3.20;;;0.85;;
60225;SDS011;46090;48.436;11.410;2023-07-31T01:07:27;3.20;;;1.10;;
60225;SDS011;46090;48.436;11.410;2023-07-31T01:12:57;2.83;;;1.00;;
60225;SDS011;46090;48.436;11.410;2023-07-31T01:15:24;4.32;;;1.10;;
60225;SDS011;46090;48.436;11.410;2023-07-31T01:17:51;4.20;;;1.00;;
60225;SDS011;46090;48.436;11.410;2023-07-31T01:20:23;3.00;;;1.00;;
60225;SDS011;46090;48.436;11.410;2023-07-31T01:28:45;6.78;;;1.17;;
60225;SDS011;46090;48.436;11.410;2023-07-31T01:31:19;5.18;;;1.13;;
60225;SDS011;46090;48.436;11.410;2023-07-31T01:33:47;4.32;;;1.08;;
60225;SDS011;46090;48.436;11.410;2023-07-31T01:36:14;3.15;;;0.98;;
60225;SDS011;46090;48.436;11.410;2023-07-31T01:38:41;2.95;;;1.00;;
60225;SDS011;46090;48.436;11.410;2023-07-31T01:41:08;5.10;;;1.20;;
60225;SDS011;46090;48.436;11.410;2023-07-31T01:43:35;4.35;;;0.90;;
60225;SDS011;46090;48.436;11.410;2023-07-31T01:46:01;4.78;;;1.10;;
60225;SDS011;46090;48.436;11.410;2023-07-31T01:48:28;3.55;;;1.10;;
60225;SDS011;46090;48.436;11.410;2023-07-31T01:50:55;5.15;;;1.23;;
60225;SDS011;46090;48.436;11.410;2023-07-31T01:53:22;2.75;;;0.73;;
60225;SDS011;46090;48.436;11.410;2023-07-31T01:55:49;4.38;;;1.10;;
60225;SDS011;46090;48.436;11.410;2023-07-31T01:58:15;3.45;;;1.00;;
60225;SDS011;46090;48.436;11.410;2023-07-31T02:00:42;3.38;;;1.33;;
60225;SDS011;46090;48.436;11.410;2023-07-31T02:03:09;4.07;;;1.15;;
60225;SDS011;46090;48.436;11.410;2023-07-31T02:05:36;3.40;;;1.00;;
60225;SDS011;46090;48.436;11.410;2023-07-31T02:08:03;3.72;;;1.05;;
60225;SDS011;46090;48.436;11.410;2023-07-31T02:10:31;4.60;;;1.20;;
60225;SDS011;46090;48.436;11.410;2023-07-31T02:12:58;2.78;;;1.00;;
60225;SDS011;46090;48.436;11.410;2023-07-31T02:15:25;4.97;;;0.80;;
60225;SDS011;46090;48.436;11.410;2023-07-31T02:17:52;6.45;;;0.90;;
60225;SDS011;46090;48.436;11.410;2023-07-31T02:20:18;2.72;;;0.93;;
60225;SDS011;46090;48.436;11.410;2023-07-31T02:22:45;4.22;;;1.30;;
60225;SDS011;46090;48.436;11.410;2023-07-31T02:25:12;3.80;;;1.30;;
60225;SDS011;46090;48.436;11.410;2023-07-31T02:27:38;3.10;;;1.15;;
60225;SDS011;46090;48.436;11.410;2023-07-31T02:30:05;3.00;;;0.90;;
60225;SDS011;46090;48.436;11.410;2023-07-31T02:32:32;3.08;;;1.00;;
60225;SDS011;46090;48.436;11.410;2023-07-31T02:34:59;3.55;;;0.85;;
60225;SDS011;46090;48.436;11.410;2023-07-31T02:37:26;12.48;;;1.17;;
60225;SDS011;46090;48.436;11.410;2023-07-31T02:39:52;3.45;;;1.20;;
60225;SDS011;46090;48.436;11.410;2023-07-31T02:42:19;4.43;;;1.50;;
60225;SDS011;46090;48.436;11.410;2023-07-31T02:44:46;2.90;;;1.10;;
60225;SDS011;46090;48.436;11.410;2023-07-31T02:47:13;5.30;;;1.25;;
60225;SDS011;46090;48.436;11.410;2023-07-31T02:49:39;3.97;;;1.10;;
60225;SDS011;46090;48.436;11.410;2023-07-31T02:52:06;3.53;;;1.35;;
60225;SDS011;46090;48.436;11.410;2023-07-31T02:54:33;4.22;;;1.73;;
60225;SDS011;46090;48.436;11.410;2023-07-31T02:56:59;3.15;;;1.35;;
60225;SDS011;46090;48.436;11.410;2023-07-31T02:59:27;3.72;;;1.20;;
60225;SDS011;46090;48.436;11.410;2023-07-31T03:01:54;2.50;;;0.90;;
60225;SDS011;46090;48.436;11.410;2023-07-31T03:04:21;5.20;;;1.35;;
60225;SDS011;46090;48.436;11.410;2023-07-31T03:06:48;4.10;;;1.15;;
60225;SDS011;46090;48.436;11.410;2023-07-31T03:09:15;5.68;;;1.10;;
60225;SDS011;46090;48.436;11.410;2023-07-31T03:11:43;3.97;;;1.10;;
60225;SDS011;46090;48.436;11.410;2023-07-31T03:14:10;3.92;;;1.20;;
60225;SDS011;46090;48.436;11.410;2023-07-31T03:16:37;4.00;;;1.20;;
60225;SDS011;46090;48.436;11.410;2023-07-31T03:19:04;3.42;;;1.15;;
60225;SDS011;46090;48.436;11.410;2023-07-31T03:21:31;3.22;;;1.08;;
60225;SDS011;46090;48.436;11.410;2023-07-31T03:23:57;3.70;;;1.17;;
60225;SDS011;46090;48.436;11.410;2023-07-31T03:26:24;3.85;;;1.10;;
60225;SDS011;46090;48.436;11.410;2023-07-31T03:28:50;3.38;;;1.20;;
60225;SDS011;46090;48.436;11.410;2023-07-31T03:31:17;2.78;;;0.90;;
60225;SDS011;46090;48.436;11.410;2023-07-31T03:33:44;4.55;;;1.08;;
60225;SDS011;46090;48.436;11.410;2023-07-31T03:36:10;4.05;;;1.23;;
60225;SDS011;46090;48.436;11.410;2023-07-31T03:38:37;3.13;;;1.00;;
60225;SDS011;46090;48.436;11.410;2023-07-31T03:41:03;2.75;;;1.10;;
60225;SDS011;46090;48.436;11.410;2023-07-31T03:43:32;3.83;;;1.17;;
60225;SDS011;46090;48.436;11.410;2023-07-31T03:46:02;3.08;;;1.05;;
60225;SDS011;46090;48.436;11.410;2023-07-31T03:48:29;7.47;;;1.40;;
60225;SDS011;46090;48.436;11.410;2023-07-31T03:50:56;2.60;;;1.00;;
60225;SDS011;46090;48.436;11.410;2023-07-31T03:53:23;3.38;;;1.08;;
60225;SDS011;46090;48.436;11.410;2023-07-31T03:55:49;4.22;;;1.48;;
60225;SDS011;46090;48.436;11.410;2023-07-31T03:58:16;5.80;;;1.33;;
60225;SDS011;46090;48.436;11.410;2023-07-31T04:00:43;6.95;;;1.70;;
60225;SDS011;46090;48.436;11.410;2023-07-31T04:03:09;3.08;;;1.23;;
60225;SDS011;46090;48.436;11.410;2023-07-31T04:05:37;4.78;;;1.13;;
60225;SDS011;46090;48.436;11.410;2023-07-31T04:08:05;3.67;;;1.30;;
60225;SDS011;46090;48.436;11.410;2023-07-31T04:10:31;5.30;;;1.75;;
60225;SDS011;46090;48.436;11.410;2023-07-31T04:13:00;3.83;;;1.42;;
60225;SDS011;46090;48.436;11.410;2023-07-31T04:15:27;5.68;;;1.38;;
60225;SDS011;46090;48.436;11.410;2023-07-31T04:17:53;6.88;;;1.20;;
60225;SDS011;46090;48.436;11.410;2023-07-31T04:20:20;3.65;;;1.33;;
60225;SDS011;46090;48.436;11.410;2023-07-31T04:22:47;4.25;;;1.60;;
60225;SDS011;46090;48.436;11.410;2023-07-31T04:25:14;3.90;;;1.35;;
60225;SDS011;46090;48.436;11.410;2023-07-31T04:27:40;3.65;;;1.02;;
60225;SDS011;46090;48.436;11.410;2023-07-31T04:30:07;5.55;;;1.30;;
60225;SDS011;46090;48.436;11.410;2023-07-31T04:32:34;6.65;;;1.60;;
60225;SDS011;46090;48.436;11.410;2023-07-31T04:35:02;2.83;;;1.13;;
60225;SDS011;46090;48.436;11.410;2023-07-31T04:37:29;4.38;;;1.27;;
60225;SDS011;46090;48.436;11.410;2023-07-31T04:39:56;3.75;;;1.30;;
60225;SDS011;46090;48.436;11.410;2023-07-31T04:42:22;2.63;;;1.05;;
60225;SDS011;46090;48.436;11.410;2023-07-31T04:44:49;5.07;;;1.13;;
60225;SDS011;46090;48.436;11.410;2023-07-31T04:47:16;5.22;;;1.60;;
60225;SDS011;46090;48.436;11.410;2023-07-31T04:49:42;4.13;;;1.30;;
60225;SDS011;46090;48.436;11.410;2023-07-31T04:52:09;4.50;;;1.30;;
60225;SDS011;46090;48.436;11.410;2023-07-31T04:54:36;3.65;;;1.42;;
60225;SDS011;46090;48.436;11.410;2023-07-31T04:57:02;4.03;;;1.23;;
60225;SDS011;46090;48.436;11.410;2023-07-31T04:59:29;3.10;;;1.05;;
60225;SDS011;46090;48.436;11.410;2023-07-31T05:01:57;4.43;;;1.38;;
60225;SDS011;46090;48.436;11.410;2023-07-31T05:04:24;3.97;;;1.45;;
60225;SDS011;46090;48.436;11.410;2023-07-31T05:06:51;6.53;;;1.55;;
60225;SDS011;46090;48.436;11.410;2023-07-31T05:09:17;3.25;;;1.23;;
60225;SDS011;46090;48.436;11.410;2023-07-31T05:11:44;3.40;;;1.20;;
60225;SDS011;46090;48.436;11.410;2023-07-31T05:14:11;3.75;;;1.33;;
60225;SDS011;46090;48.436;11.410;2023-07-31T05:16:37;4.55;;;1.27;;
60225;SDS011;46090;48.436;11.410;2023-07-31T05:19:05;4.50;;;1.10;;
60225;SDS011;46090;48.436;11.410;2023-07-31T05:21:31;3.80;;;1.40;;
60225;SDS011;46090;48.436;11.410;2023-07-31T05:23:58;4.00;;;1.30;;
60225;SDS011;46090;48.436;11.410;2023-07-31T05:26:25;3.80;;;1.42;;
60225;SDS011;46090;48.436;11.410;2023-07-31T05:28:51;3.28;;;1.35;;
60225;SDS011;46090;48.436;11.410;2023-07-31T05:31:18;3.53;;;1.33;;
60225;SDS011;46090;48.436;11.410;2023-07-31T05:33:45;4.30;;;1.23;;
60225;SDS011;46090;48.436;11.410;2023-07-31T05:36:11;4.47;;;1.55;;
60225;SDS011;46090;48.436;11.410;2023-07-31T05:38:38;4.60;;;1.40;;
60225;SDS011;46090;48.436;11.410;2023-07-31T05:41:08;6.28;;;1.60;;
60225;SDS011;46090;48.436;11.410;2023-07-31T05:43:35;4.75;;;1.30;;
60225;SDS011;46090;48.436;11.410;2023-07-31T05:46:02;5.80;;;1.33;;
60225;SDS011;46090;48.436;11.410;2023-07-31T05:48:32;4.10;;;1.02;;
60225;SDS011;46090;48.436;11.410;2023-07-31T05:51:00;3.40;;;1.13;;
60225;SDS011;46090;48.436;11.410;2023-07-31T05:53:27;2.92;;;1.10;;
60225;SDS011;46090;48.436;11.410;2023-07-31T05:55:54;4.22;;;1.05;;
60225;SDS011;46090;48.436;11.410;2023-07-31T05:58:22;5.22;;;1.33;;
60225;SDS011;46090;48.436;11.410;2023-07-31T06:00:49;4.63;;;1.50;;
60225;SDS011;46090;48.436;11.410;2023-07-31T06:03:16;4.88;;;1.27;;
60225;SDS011;46090;48.436;11.410;2023-07-31T06:05:42;4.20;;;1.50;;
60225;SDS011;46090;48.436;11.410;2023-07-31T06:08:09;5.80;;;1.60;;
60225;SDS011;46090;48.436;11.410;2023-07-31T06:10:35;5.28;;;1.63;;
60225;SDS011;46090;48.436;11.410;2023-07-31T06:13:02;2.80;;;1.13;;
60225;SDS011;46090;48.436;11.410;2023-07-31T06:15:29;4.38;;;1.10;;
60225;SDS011;46090;48.436;11.410;2023-07-31T06:17:55;4.00;;;1.00;;
60225;SDS011;46090;48.436;11.410;2023-07-31T06:20:22;3.20;;;1.20;;
60225;SDS011;46090;48.436;11.410;2023-07-31T06:22:49;8.77;;;1.40;;
60225;SDS011;46090;48.436;11.410;2023-07-31T06:25:15;7.20;;;1.30;;
60225;SDS011;46090;48.436;11.410;2023-07-31T06:27:42;3.10;;;1.08;;
60225;SDS011;46090;48.436;11.410;2023-07-31T06:30:09;3.00;;;0.95;;
60225;SDS011;46090;48.436;11.410;2023-07-31T06:32:36;4.28;;;1.17;;
60225;SDS011;46090;48.436;11.410;2023-07-31T06:35:02;4.63;;;1.10;;
60225;SDS011;46090;48.436;11.410;2023-07-31T06:37:29;3.03;;;1.10;;
60225;SDS011;46090;48.436;11.410;2023-07-31T06:39:56;3.33;;;1.23;;
60225;SDS011;46090;48.436;11.410;2023-07-31T06:42:23;3.92;;;1.13;;
60225;SDS011;46090;48.436;11.410;2023-07-31T06:44:49;4.00;;;1.10;;
60225;SDS011;46090;48.436;11.410;2023-07-31T06:47:16;4.90;;;1.20;;
60225;SDS011;46090;48.436;11.410;2023-07-31T06:49:43;3.92;;;1.20;;
60225;SDS011;46090;48.436;11.410;2023-07-31T06:52:09;2.95;;;0.95;;
60225;SDS011;46090;48.436;11.410;2023-07-31T06:54:37;4.18;;;1.20;;
60225;SDS011;46090;48.436;11.410;2023-07-31T06:57:04;3.92;;;1.30;;
60225;SDS011;46090;48.436;11.410;2023-07-31T06:59:31;4.35;;;1.10;;
60225;SDS011;46090;48.436;11.410;2023-07-31T07:01:57;5.72;;;1.20;;
60225;SDS011;46090;48.436;11.410;2023-07-31T07:04:24;4.65;;;1.00;;
60225;SDS011;46090;48.436;11.410;2023-07-31T07:06:50;3.13;;;0.80;;
60225;SDS011;46090;48.436;11.410;2023-07-31T07:09:17;3.40;;;1.20;;
60225;SDS011;46090;48.436;11.410;2023-07-31T07:11:44;3.10;;;0.80;;
60225;SDS011;46090;48.436;11.410;2023-07-31T07:14:11;3.45;;;0.90;;
60225;SDS011;46090;48.436;11.410;2023-07-31T07:16:37;3.15;;;0.93;;
60225;SDS011;46090;48.436;11.410;2023-07-31T07:19:07;4.05;;;1.00;;
60225;SDS011;46090;48.436;11.410;2023-07-31T07:21:34;3.08;;;0.93;;
60225;SDS011;46090;48.436;11.410;2023-07-31T07:24:01;3.38;;;0.93;;
60225;SDS011;46090;48.436;11.410;2023-07-31T07:26:27;4.45;;;1.08;;
60225;SDS011;46090;48.436;11.410;2023-07-31T07:28:54;3.53;;;0.80;;
60225;SDS011;46090;48.436;11.410;2023-07-31T07:31:21;3.03;;;0.93;;
60225;SDS011;46090;48.436;11.410;2023-07-31T07:33:48;4.70;;;1.10;;
60225;SDS011;46090;48.436;11.410;2023-07-31T07:36:14;5.07;;;0.90;;
60225;SDS011;46090;48.436;11.410;2023-07-31T07:38:41;5.53;;;0.90;;
60225;SDS011;46090;48.436;11.410;2023-07-31T07:41:08;6.47;;;1.35;;
60225;SDS011;46090;48.436;11.410;2023-07-31T07:43:35;4.72;;;0.93;;
60225;SDS011;46090;48.436;11.410;2023-07-31T07:46:02;2.97;;;0.73;;
60225;SDS011;46090;48.436;11.410;2023-07-31T07:48:28;3.40;;;0.70;;
60225;SDS011;46090;48.436;11.410;2023-07-31T07:50:55;3.63;;;0.80;;
60225;SDS011;46090;48.436;11.410;2023-07-31T07:53:22;2.72;;;0.73;;
60225;SDS011;46090;48.436;11.410;2023-07-31T07:55:48;2.47;;;0.80;;
60225;SDS011;46090;48.436;11.410;2023-07-31T07:58:15;4.70;;;0.93;;
60225;SDS011;46090;48.436;11.410;2023-07-31T08:00:42;8.60;;;1.00;;
60225;SDS011;46090;48.436;11.410;2023-07-31T08:03:15;3.28;;;0.85;;
60225;SDS011;46090;48.436;11.410;2023-07-31T08:05:43;3.08;;;0.70;;
60225;SDS011;46090;48.436;11.410;2023-07-31T08:08:14;4.55;;;0.77;;
60225;SDS011;46090;48.436;11.410;2023-07-31T08:10:41;4.55;;;0.60;;
60225;SDS011;46090;48.436;11.410;2023-07-31T08:13:09;3.72;;;0.90;;
60225;SDS011;46090;48.436;11.410;2023-07-31T08:15:37;4.25;;;0.63;;
60225;SDS011;46090;48.436;11.410;2023-07-31T08:18:04;2.47;;;0.57;;
60225;SDS011;46090;48.436;11.410;2023-07-31T08:20:31;3.20;;;0.73;;
60225;SDS011;46090;48.436;11.410;2023-07-31T08:22:57;3.35;;;0.75;;
60225;SDS011;46090;48.436;11.410;2023-07-31T08:25:24;4.85;;;0.55;;
60225;SDS011;46090;48.436;11.410;2023-07-31T08:27:51;3.63;;;0.77;;
60225;SDS011;46090;48.436;11.410;2023-07-31T08:30:19;3.45;;;0.73;;
60225;SDS011;46090;48.436;11.410;2023-07-31T08:32:47;2.45;;;0.50;;
60225;SDS011;46090;48.436;11.410;2023-07-31T08:35:15;3.03;;;0.73;;
60225;SDS011;46090;48.436;11.410;2023-07-31T08:37:41;3.63;;;0.60;;
60225;SDS011;46090;48.436;11.410;2023-07-31T08:40:08;2.65;;;0.57;;
60225;SDS011;46090;48.436;11.410;2023-07-31T08:42:45;5.25;;;0.63;;
60225;SDS011;46090;48.436;11.410;2023-07-31T08:45:13;2.58;;;0.50;;
60225;SDS011;46090;48.436;11.410;2023-07-31T08:47:46;1.70;;;0.47;;
60225;SDS011;46090;48.436;11.410;2023-07-31T08:50:14;1.88;;;0.45;;
60225;SDS011;46090;48.436;11.410;2023-07-31T08:52:42;4.85;;;0.82;;
60225;SDS011;46090;48.436;11.410;2023-07-31T08:55:09;3.70;;;0.85;;
60225;SDS011;46090;48.436;11.410;2023-07-31T08:57:37;3.92;;;1.00;;
60225;SDS011;46090;48.436;11.410;2023-07-31T09:00:05;2.90;;;0.50;;
60225;SDS011;46090;48.436;11.410;2023-07-31T09:02:41;2.58;;;0.50;;
60225;SDS011;46090;48.436;11.410;2023-07-31T09:05:10;2.60;;;0.70;;
60225;SDS011;46090;48.436;11.410;2023-07-31T09:07:37;2.75;;;0.70;;
60225;SDS011;46090;48.436;11.410;2023-07-31T09:10:04;3.05;;;0.47;;
60225;SDS011;46090;48.436;11.410;2023-07-31T09:12:31;4.63;;;0.60;;
60225;SDS011;46090;48.436;11.410;2023-07-31T09:14:58;2.88;;;0.82;;
60225;SDS011;46090;48.436;11.410;2023-07-31T09:17:28;5.95;;;0.50;;
60225;SDS011;46090;48.436;11.410;2023-07-31T09:19:56;4.85;;;0.88;;
60225;SDS011;46090;48.436;11.410;2023-07-31T09:22:33;3.38;;;0.75;;
60225;SDS011;46090;48.436;11.410;2023-07-31T09:25:24;3.03;;;0.57;;
60225;SDS011;46090;48.436;11.410;2023-07-31T09:27:51;2.70;;;0.70;;
60225;SDS011;46090;48.436;11.410;2023-07-31T09:30:21;3.30;;;0.88;;
60225;SDS011;46090;48.436;11.410;2023-07-31T09:32:48;1.85;;;0.60;;
60225;SDS011;46090;48.436;11.410;2023-07-31T09:37:55;3.75;;;0.70;;
60225;SDS011;46090;48.436;11.410;2023-07-31T09:40:27;4.30;;;0.70;;
60225;SDS011;46090;48.436;11.410;2023-07-31T09:42:56;1.85;;;0.50;;
60225;SDS011;46090;48.436;11.410;2023-07-31T09:45:26;3.10;;;0.63;;
60225;SDS011;46090;48.436;11.410;2023-07-31T09:48:07;4.60;;;0.75;;
60225;SDS011;46090;48.436;11.410;2023-07-31T09:50:38;4.18;;;0.60;;
60225;SDS011;46090;48.436;11.410;2023-07-31T09:53:06;3.78;;;0.60;;
60225;SDS011;46090;48.436;11.410;2023-07-31T09:55:33;2.40;;;0.47;;
60225;SDS011;46090;48.436;11.410;2023-07-31T09:58:09;2.55;;;0.60;;
60225;SDS011;46090;48.436;11.410;2023-07-31T10:00:37;3.70;;;0.50;;
60225;SDS011;46090;48.436;11.410;2023-07-31T10:03:04;2.15;;;0.50;;
60225;SDS011;46090;48.436;11.410;2023-07-31T10:05:44;2.88;;;0.50;;
60225;SDS011;46090;48.436;11.410;2023-07-31T10:08:14;2.45;;;0.60;;
60225;SDS011;46090;48.436;11.410;2023-07-31T10:10:45;3.78;;;0.77;;
60225;SDS011;46090;48.436;11.410;2023-07-31T10:13:12;2.20;;;0.70;;
60225;SDS011;46090;48.436;11.410;2023-07-31T10:15:39;2.63;;;0.60;;
60225;SDS011;46090;48.436;11.410;2023-07-31T10:18:08;2.65;;;0.65;;
60225;SDS011;46090;48.436;11.410;2023-07-31T10:20:35;4.43;;;0.82;;
60225;SDS011;46090;48.436;11.410;2023-07-31T10:23:02;4.10;;;0.70;;
60225;SDS011;46090;48.436;11.410;2023-07-31T10:25:29;3.47;;;0.60;;
60225;SDS011;46090;48.436;11.410;2023-07-31T10:27:56;3.17;;;0.70;;
60225;SDS011;46090;48.436;11.410;2023-07-31T10:30:27;5.07;;;0.60;;
60225;SDS011;46090;48.436;11.410;2023-07-31T10:32:55;3.10;;;0.50;;
60225;SDS011;46090;48.436;11.410;2023-07-31T10:35:23;3.38;;;0.70;;
60225;SDS011;46090;48.436;11.410;2023-07-31T10:37:49;3.60;;;0.50;;
60225;SDS011;46090;48.436;11.410;2023-07-31T10:40:17;4.35;;;0.68;;
60225;SDS011;46090;48.436;11.410;2023-07-31T10:42:51;3.08;;;0.60;;
60225;SDS011;46090;48.436;11.410;2023-07-31T10:45:33;5.35;;;0.70;;
60225;SDS011;46090;48.436;11.410;2023-07-31T10:48:03;3.53;;;0.70;;
60225;SDS011;46090;48.436;11.410;2023-07-31T10:50:45;2.08;;;0.40;;
60225;SDS011;46090;48.436;11.410;2023-07-31T10:53:47;2.50;;;0.60;;
60225;SDS011;46090;48.436;11.410;2023-07-31T10:56:08;4.40;;;0.70;;
60225;SDS011;46090;48.436;11.410;2023-07-31T10:58:36;2.70;;;0.60;;
60225;SDS011;46090;48.436;11.410;2023-07-31T11:01:04;4.03;;;0.88;;
60225;SDS011;46090;48.436;11.410;2023-07-31T11:06:09;3.13;;;0.63;;
60225;SDS011;46090;48.436;11.410;2023-07-31T11:08:40;4.18;;;0.90;;
60225;SDS011;46090;48.436;11.410;2023-07-31T11:11:09;3.30;;;0.70;;
60225;SDS011;46090;48.436;11.410;2023-07-31T11:13:45;3.97;;;0.80;;
60225;SDS011;46090;48.436;11.410;2023-07-31T11:16:12;6.35;;;0.70;;
60225;SDS011;46090;48.436;11.410;2023-07-31T11:18:40;3.40;;;0.60;;
60225;SDS011;46090;48.436;11.410;2023-07-31T11:21:08;3.70;;;0.60;;
60225;SDS011;46090;48.436;11.410;2023-07-31T11:23:39;4.93;;;1.15;;
60225;SDS011;46090;48.436;11.410;2023-07-31T11:26:06;3.03;;;0.70;;
60225;SDS011;46090;48.436;11.410;2023-07-31T11:28:34;2.67;;;0.50;;
60225;SDS011;46090;48.436;11.410;2023-07-31T11:31:01;3.70;;;0.60;;
60225;SDS011;46090;48.436;11.410;2023-07-31T11:33:29;5.60;;;0.70;;
60225;SDS011;46090;48.436;11.410;2023-07-31T11:35:55;4.60;;;0.90;;
60225;SDS011;46090;48.436;11.410;2023-07-31T11:38:26;3.80;;;0.80;;
60225;SDS011;46090;48.436;11.410;2023-07-31T11:41:02;2.95;;;0.70;;
60225;SDS011;46090;48.436;11.410;2023-07-31T11:43:33;3.17;;;0.70;;
60225;SDS011;46090;48.436;11.410;2023-07-31T11:46:00;3.60;;;0.50;;
60225;SDS011;46090;48.436;11.410;2023-07-31T11:48:33;2.55;;;0.50;;
60225;SDS011;46090;48.436;11.410;2023-07-31T11:51:03;5.00;;;0.90;;
60225;SDS011;46090;48.436;11.410;2023-07-31T11:55:58;1.63;;;0.47;;
60225;SDS011;46090;48.436;11.410;2023-07-31T11:58:27;1.95;;;0.63;;
60225;SDS011;46090;48.436;11.410;2023-07-31T12:00:54;2.72;;;0.60;;
60225;SDS011;46090;48.436;11.410;2023-07-31T12:03:21;2.17;;;0.52;;
60225;SDS011;46090;48.436;11.410;2023-07-31T12:05:47;3.28;;;0.70;;
60225;SDS011;46090;48.436;11.410;2023-07-31T12:08:14;2.70;;;0.65;;
60225;SDS011;46090;48.436;11.410;2023-07-31T12:10:42;2.35;;;0.70;;
60225;SDS011;46090;48.436;11.410;2023-07-31T12:13:19;5.13;;;0.73;;
60225;SDS011;46090;48.436;11.410;2023-07-31T12:15:47;3.53;;;0.60;;
60225;SDS011;46090;48.436;11.410;2023-07-31T12:18:15;2.28;;;0.60;;
60225;SDS011;46090;48.436;11.410;2023-07-31T12:20:45;2.00;;;0.40;;
60225;SDS011;46090;48.436;11.410;2023-07-31T12:23:23;2.45;;;0.60;;
60225;SDS011;46090;48.436;11.410;2023-07-31T12:26:07;2.75;;;0.73;;
60225;SDS011;46090;48.436;11.410;2023-07-31T12:28:47;4.30;;;0.50;;
60225;SDS011;46090;48.436;11.410;2023-07-31T12:31:16;2.17;;;0.70;;
60225;SDS011;46090;48.436;11.410;2023-07-31T12:33:46;2.60;;;0.57;;
60225;SDS011;46090;48.436;11.410;2023-07-31T12:36:14;2.72;;;0.43;;
60225;SDS011;46090;48.436;11.410;2023-07-31T12:38:41;4.32;;;0.65;;
60225;SDS011;46090;48.436;11.410;2023-07-31T12:41:08;2.33;;;0.47;;
60225;SDS011;46090;48.436;11.410;2023-07-31T12:43:35;1.48;;;0.47;;
60225;SDS011;46090;48.436;11.410;2023-07-31T12:46:02;2.50;;;0.50;;
60225;SDS011;46090;48.436;11.410;2023-07-31T12:48:29;3.60;;;0.65;;
60225;SDS011;46090;48.436;11.410;2023-07-31T12:50:57;2.55;;;0.60;;
60225;SDS011;46090;48.436;11.410;2023-07-31T12:53:24;2.30;;;0.70;;
60225;SDS011;46090;48.436;11.410;2023-07-31T12:55:50;3.13;;;0.60;;
60225;SDS011;46090;48.436;11.410;2023-07-31T12:58:17;2.60;;;0.77;;
60225;SDS011;46090;48.436;11.410;2023-07-31T13:00:44;2.75;;;0.60;;
60225;SDS011;46090;48.436;11.410;2023-07-31T13:03:11;4.03;;;0.52;;
60225;SDS011;46090;48.436;11.410;2023-07-31T13:05:38;2.58;;;0.47;;
60225;SDS011;46090;48.436;11.410;2023-07-31T13:08:04;3.53;;;0.60;;
60225;SDS011;46090;48.436;11.410;2023-07-31T13:10:31;3.30;;;0.50;;
60225;SDS011;46090;48.436;11.410;2023-07-31T13:12:58;4.43;;;0.65;;
60225;SDS011;46090;48.436;11.410;2023-07-31T13:15:24;4.18;;;0.75;;
60225;SDS011;46090;48.436;11.410;2023-07-31T13:17:51;3.30;;;0.63;;
60225;SDS011;46090;48.436;11.410;2023-07-31T13:20:18;4.07;;;0.70;;
60225;SDS011;46090;48.436;11.410;2023-07-31T13:22:44;3.95;;;0.70;;
60225;SDS011;46090;48.436;11.410;2023-07-31T13:25:12;2.20;;;0.60;;
60225;SDS011;46090;48.436;11.410;2023-07-31T13:27:39;4.32;;;0.70;;
60225;SDS011;46090;48.436;11.410;2023-07-31T13:30:06;3.90;;;0.70;;
60225;SDS011;46090;48.436;11.410;2023-07-31T13:32:33;2.65;;;0.60;;
60225;SDS011;46090;48.436;11.410;2023-07-31T13:35:02;4.03;;;1.08;;
60225;SDS011;46090;48.436;11.410;2023-07-31T13:37:29;2.15;;;0.75;;
60225;SDS011;46090;48.436;11.410;2023-07-31T13:39:55;4.60;;;0.93;;
60225;SDS011;46090;48.436;11.410;2023-07-31T13:42:22;3.22;;;0.70;;
60225;SDS011;46090;48.436;11.410;2023-07-31T13:44:49;2.83;;;0.60;;
60225;SDS011;46090;48.436;11.410;2023-07-31T13:47:15;3.15;;;0.73;;
60225;SDS011;46090;48.436;11.410;2023-07-31T13:49:42;1.88;;;0.60;;
60225;SDS011;46090;48.436;11.410;2023-07-31T13:52:09;2.10;;;0.60;;
60225;SDS011;46090;48.436;11.410;2023-07-31T13:54:36;3.67;;;0.82;;
60225;SDS011;46090;48.436;11.410;2023-07-31T13:57:03;3.72;;;0.95;;
60225;SDS011;46090;48.436;11.410;2023-07-31T13:59:30;3.28;;;1.58;;
60225;SDS011;46090;48.436;11.410;2023-07-31T14:01:56;2.00;;;0.50;;
60225;SDS011;46090;48.436;11.410;2023-07-31T14:04:23;2.05;;;0.75;;
60225;SDS011;46090;48.436;11.410;2023-07-31T14:06:49;4.40;;;0.80;;
60225;SDS011;46090;48.436;11.410;2023-07-31T14:09:17;1.83;;;0.50;;
60225;SDS011;46090;48.436;11.410;2023-07-31T14:11:44;3.75;;;0.80;;
60225;SDS011;46090;48.436;11.410;2023-07-31T14:14:10;2.88;;;0.70;;
60225;SDS011;46090;48.436;11.410;2023-07-31T14:16:37;3.97;;;1.02;;
60225;SDS011;46090;48.436;11.410;2023-07-31T14:19:05;3.90;;;0.80;;
60225;SDS011;46090;48.436;11.410;2023-07-31T14:21:32;4.07;;;0.90;;
60225;SDS011;46090;48.436;11.410;2023-07-31T14:23:59;3.58;;;0.88;;
60225;SDS011;46090;48.436;11.410;2023-07-31T14:26:25;3.80;;;0.95;;
60225;SDS011;46090;48.436;11.410;2023-07-31T14:28:52;3.63;;;1.08;;
60225;SDS011;46090;48.436;11.410;2023-07-31T14:31:18;4.70;;;1.13;;
60225;SDS011;46090;48.436;11.410;2023-07-31T14:33:45;2.45;;;0.60;;
60225;SDS011;46090;48.436;11.410;2023-07-31T14:36:12;3.10;;;1.00;;
60225;SDS011;46090;48.436;11.410;2023-07-31T14:38:38;3.13;;;0.82;;
60225;SDS011;46090;48.436;11.410;2023-07-31T14:41:05;2.42;;;0.60;;
60225;SDS011;46090;48.436;11.410;2023-07-31T14:43:32;5.53;;;1.25;;
60225;SDS011;46090;48.436;11.410;2023-07-31T14:45:59;5.03;;;1.08;;
60225;SDS011;46090;48.436;11.410;2023-07-31T14:48:26;2.97;;;0.90;;
60225;SDS011;46090;48.436;11.410;2023-07-31T14:50:53;2.70;;;0.90;;
60225;SDS011;46090;48.436;11.410;2023-07-31T14:53:20;3.10;;;0.80;;